VBD201 CYEG-CYVR
Flight info
| Callsign | VBD201 |
|---|---|
| Flight time | N/A |
| Altitude | 34000 |
| Route | ANDIE Q860 MERYT DCT BOOTH CANUC6 |
| Aircraft | A20N/M-SDE2E3FGHIJ1RWXY/LB1 |
Departure
| Time | 2026-05-07 07:46 |
|---|---|
| Airport | Edmonton International Airport (CYEG) |
Arrival
| Time | N/A |
|---|---|
| Airport | Vancouver International Airport (CYVR) |
| Time | Latitude | Longitude | Altitude | Speed | Heading |
|---|---|---|---|---|---|
| 2026-05-07 07:37 | 53.31336 | -113.58681 | 2350 ft | 5 kts | 35° |
| 2026-05-07 07:38 | 53.31378 | -113.58635 | 2350 ft | 9 kts | 33° |
| 2026-05-07 07:38 | 53.31442 | -113.58563 | 2350 ft | 13 kts | 34° |
| 2026-05-07 07:38 | 53.31457 | -113.58546 | 2350 ft | 2 kts | 34° |
| 2026-05-07 07:38 | 53.31479 | -113.58521 | 2350 ft | 6 kts | 34° |
| 2026-05-07 07:39 | 53.31523 | -113.58470 | 2351 ft | 10 kts | 34° |
| 2026-05-07 07:39 | 53.31589 | -113.58394 | 2351 ft | 13 kts | 34° |
| 2026-05-07 07:39 | 53.31674 | -113.58294 | 2351 ft | 17 kts | 35° |
| 2026-05-07 07:39 | 53.31773 | -113.58177 | 2352 ft | 17 kts | 35° |
| 2026-05-07 07:40 | 53.31883 | -113.58057 | 2353 ft | 20 kts | 33° |
| 2026-05-07 07:40 | 53.31995 | -113.57926 | 2353 ft | 20 kts | 34° |
| 2026-05-07 07:40 | 53.32105 | -113.57796 | 2354 ft | 19 kts | 36° |
| 2026-05-07 07:40 | 53.32217 | -113.57665 | 2355 ft | 19 kts | 35° |
| 2026-05-07 07:41 | 53.32333 | -113.57531 | 2355 ft | 20 kts | 34° |
| 2026-05-07 07:41 | 53.32445 | -113.57399 | 2356 ft | 20 kts | 35° |
| 2026-05-07 07:41 | 53.32557 | -113.57267 | 2357 ft | 18 kts | 34° |
| 2026-05-07 07:41 | 53.32665 | -113.57140 | 2358 ft | 19 kts | 35° |
| 2026-05-07 07:42 | 53.32777 | -113.57008 | 2358 ft | 21 kts | 35° |
| 2026-05-07 07:42 | 53.32893 | -113.56872 | 2359 ft | 21 kts | 35° |
| 2026-05-07 07:42 | 53.33008 | -113.56740 | 2359 ft | 20 kts | 35° |
| 2026-05-07 07:42 | 53.33117 | -113.56609 | 2360 ft | 18 kts | 36° |
| 2026-05-07 07:43 | 53.33224 | -113.56559 | 2361 ft | 17 kts | 328° |
| 2026-05-07 07:43 | 53.33251 | -113.56609 | 2360 ft | 0 kts | 304° |
| 2026-05-07 07:44 | 53.33261 | -113.56633 | 2360 ft | 5 kts | 306° |
| 2026-05-07 07:44 | 53.33292 | -113.56705 | 2359 ft | 10 kts | 302° |
| 2026-05-07 07:45 | 53.33278 | -113.56824 | 2359 ft | 12 kts | 222° |
| 2026-05-07 07:45 | 53.33164 | -113.56962 | 2357 ft | 46 kts | 215° |
| 2026-05-07 07:45 | 53.32659 | -113.57550 | 2358 ft | 128 kts | 215° |
| 2026-05-07 07:45 | 53.31817 | -113.58538 | 2736 ft | 162 kts | 214° |
| 2026-05-07 07:46 | 53.30859 | -113.59642 | 3549 ft | 166 kts | 215° |
| 2026-05-07 07:46 | 53.29869 | -113.60800 | 3940 ft | 191 kts | 217° |
| 2026-05-07 07:46 | 53.28722 | -113.62116 | 4514 ft | 201 kts | 213° |
| 2026-05-07 07:46 | 53.27484 | -113.63179 | 5445 ft | 199 kts | 212° |
| 2026-05-07 07:47 | 53.26284 | -113.64253 | 6631 ft | 197 kts | 216° |
| 2026-05-07 07:47 | 53.25014 | -113.65602 | 7261 ft | 233 kts | 221° |
| 2026-05-07 07:47 | 53.23710 | -113.67357 | 8037 ft | 255 kts | 226° |
| 2026-05-07 07:47 | 53.22301 | -113.69348 | 8836 ft | 276 kts | 226° |
| 2026-05-07 07:48 | 53.21105 | -113.71856 | 9795 ft | 278 kts | 247° |
| 2026-05-07 07:48 | 53.20188 | -113.74753 | 10716 ft | 292 kts | 247° |
| 2026-05-07 07:48 | 53.19183 | -113.77875 | 11273 ft | 319 kts | 246° |
| 2026-05-07 07:48 | 53.18080 | -113.81232 | 11931 ft | 339 kts | 245° |
| 2026-05-07 07:49 | 53.16922 | -113.84701 | 12996 ft | 346 kts | 245° |
| 2026-05-07 07:49 | 53.15737 | -113.88233 | 13907 ft | 353 kts | 244° |
| 2026-05-07 07:49 | 53.14530 | -113.91824 | 14745 ft | 358 kts | 244° |
| 2026-05-07 07:49 | 53.13307 | -113.95462 | 15589 ft | 362 kts | 244° |
| 2026-05-07 07:50 | 53.12070 | -113.99145 | 16424 ft | 367 kts | 244° |
| 2026-05-07 07:50 | 53.10814 | -114.02879 | 17246 ft | 372 kts | 244° |
| 2026-05-07 07:50 | 53.09541 | -114.06661 | 18062 ft | 377 kts | 244° |
| 2026-05-07 07:50 | 53.08250 | -114.10489 | 18782 ft | 381 kts | 244° |
| 2026-05-07 07:51 | 53.06948 | -114.14343 | 19542 ft | 383 kts | 244° |
| 2026-05-07 07:51 | 53.05638 | -114.18216 | 20296 ft | 386 kts | 244° |
| 2026-05-07 07:51 | 53.04315 | -114.22122 | 21041 ft | 389 kts | 244° |
| 2026-05-07 07:51 | 53.02980 | -114.26058 | 21784 ft | 392 kts | 244° |
| 2026-05-07 07:52 | 53.01634 | -114.30021 | 22502 ft | 396 kts | 244° |
| 2026-05-07 07:52 | 53.00274 | -114.34018 | 23220 ft | 399 kts | 244° |
| 2026-05-07 07:52 | 52.98898 | -114.38042 | 23845 ft | 403 kts | 243° |
| 2026-05-07 07:52 | 52.97360 | -114.41946 | 24483 ft | 406 kts | 239° |
| 2026-05-07 07:53 | 52.95765 | -114.45830 | 25074 ft | 409 kts | 239° |
| 2026-05-07 07:53 | 52.94165 | -114.49747 | 25628 ft | 412 kts | 239° |
| 2026-05-07 07:53 | 52.92553 | -114.53700 | 26137 ft | 416 kts | 239° |
| 2026-05-07 07:53 | 52.90927 | -114.57685 | 26680 ft | 419 kts | 239° |
| 2026-05-07 07:54 | 52.89291 | -114.61685 | 27222 ft | 421 kts | 239° |
| 2026-05-07 07:54 | 52.87638 | -114.65716 | 27733 ft | 424 kts | 239° |
| 2026-05-07 07:54 | 52.85974 | -114.69767 | 28216 ft | 427 kts | 239° |
| 2026-05-07 07:54 | 52.84293 | -114.73849 | 28685 ft | 430 kts | 239° |
| 2026-05-07 07:55 | 52.82603 | -114.77945 | 29165 ft | 433 kts | 239° |
| 2026-05-07 07:55 | 52.80899 | -114.82071 | 29617 ft | 436 kts | 239° |
| 2026-05-07 07:55 | 52.79182 | -114.86220 | 30050 ft | 438 kts | 239° |
| 2026-05-07 07:55 | 52.77479 | -114.90328 | 30449 ft | 440 kts | 239° |
| 2026-05-07 07:56 | 52.75727 | -114.94546 | 30939 ft | 440 kts | 239° |
| 2026-05-07 07:56 | 52.74015 | -114.98661 | 31400 ft | 440 kts | 239° |
| 2026-05-07 07:56 | 52.72261 | -115.02870 | 31923 ft | 439 kts | 239° |
| 2026-05-07 07:56 | 52.70556 | -115.06954 | 32463 ft | 437 kts | 239° |
| 2026-05-07 07:57 | 52.68836 | -115.11068 | 32996 ft | 435 kts | 239° |
| 2026-05-07 07:57 | 52.67117 | -115.15174 | 33516 ft | 434 kts | 240° |
| 2026-05-07 07:57 | 52.65407 | -115.19253 | 33839 ft | 432 kts | 240° |
| 2026-05-07 07:58 | 52.62004 | -115.27353 | 33897 ft | 429 kts | 240° |
| 2026-05-07 07:58 | 52.58600 | -115.35434 | 33899 ft | 430 kts | 239° |
| 2026-05-07 07:59 | 52.55188 | -115.43502 | 33909 ft | 430 kts | 239° |
| 2026-05-07 07:59 | 52.51772 | -115.51559 | 33910 ft | 430 kts | 239° |
| 2026-05-07 08:00 | 52.48349 | -115.59602 | 33907 ft | 430 kts | 239° |
| 2026-05-07 08:00 | 52.44922 | -115.67630 | 33908 ft | 429 kts | 239° |
| 2026-05-07 08:01 | 52.41472 | -115.75677 | 33925 ft | 434 kts | 240° |
| 2026-05-07 08:01 | 52.38004 | -115.83751 | 33916 ft | 433 kts | 240° |
| 2026-05-07 08:02 | 52.34534 | -115.91802 | 33933 ft | 433 kts | 240° |
| 2026-05-07 08:02 | 52.31055 | -115.99850 | 33934 ft | 433 kts | 240° |
| 2026-05-07 08:03 | 52.27572 | -116.07882 | 33906 ft | 433 kts | 240° |
| 2026-05-07 08:03 | 52.24062 | -116.15942 | 33948 ft | 437 kts | 242° |
| 2026-05-07 08:04 | 52.20539 | -116.24019 | 33948 ft | 437 kts | 242° |
| 2026-05-07 08:04 | 52.17011 | -116.32079 | 33946 ft | 437 kts | 242° |
| 2026-05-07 08:05 | 52.13475 | -116.40130 | 33946 ft | 437 kts | 242° |
| 2026-05-07 08:05 | 52.09958 | -116.48112 | 33937 ft | 437 kts | 243° |
| 2026-05-07 08:06 | 52.06409 | -116.56136 | 33940 ft | 437 kts | 243° |
| 2026-05-07 08:06 | 52.02857 | -116.64157 | 33946 ft | 440 kts | 243° |
| 2026-05-07 08:07 | 51.99289 | -116.72174 | 33946 ft | 437 kts | 243° |
| 2026-05-07 08:07 | 51.95725 | -116.80166 | 33945 ft | 437 kts | 243° |
| 2026-05-07 08:08 | 51.92178 | -116.88081 | 33944 ft | 426 kts | 243° |
| 2026-05-07 08:08 | 51.88663 | -116.95931 | 33946 ft | 433 kts | 243° |
| 2026-05-07 08:09 | 51.85120 | -117.03801 | 33941 ft | 431 kts | 243° |
| 2026-05-07 08:09 | 51.83353 | -117.07722 | 33938 ft | 432 kts | 243° |